createdAt,value
2022-11-19T00:00:22.243Z,10.45
2022-11-19T00:02:56.854Z,9.50
2022-11-19T00:05:27.649Z,9.10
2022-11-19T00:07:58.748Z,13.00
2022-11-19T00:10:36.792Z,10.30
2022-11-19T00:13:20.810Z,10.03
2022-11-19T00:15:51.726Z,8.63
2022-11-19T00:18:22.697Z,13.90
2022-11-19T00:20:54.764Z,8.18
2022-11-19T00:23:26.702Z,11.18
2022-11-19T00:25:57.835Z,8.85
2022-11-19T00:28:28.627Z,9.00
2022-11-19T00:31:08.122Z,13.15
2022-11-19T00:33:39.987Z,9.40
2022-11-19T00:36:13.289Z,12.00
2022-11-19T00:38:44.271Z,10.93
2022-11-19T00:41:15.183Z,9.45
2022-11-19T00:43:50.592Z,9.23
2022-11-19T00:46:30.151Z,10.60
2022-11-19T00:49:08.178Z,9.30
2022-11-19T00:51:38.987Z,9.75
2022-11-19T00:54:10.117Z,7.83
2022-11-19T00:56:41.062Z,7.95
2022-11-19T00:59:12.649Z,10.70
2022-11-19T01:01:43.617Z,7.40
2022-11-19T01:04:14.537Z,8.88
2022-11-19T01:06:45.322Z,11.08
2022-11-19T01:09:16.468Z,8.13
2022-11-19T01:11:49.754Z,8.10
2022-11-19T01:14:20.684Z,8.80
2022-11-19T01:16:51.375Z,8.63
2022-11-19T01:19:22.581Z,7.90
2022-11-19T01:22:00.649Z,7.60
2022-11-19T01:24:31.505Z,7.90
2022-11-19T01:27:02.390Z,8.48
2022-11-19T01:29:54.264Z,7.72
2022-11-19T01:32:25.745Z,5.70
2022-11-19T01:34:56.650Z,9.85
2022-11-19T01:37:28.437Z,10.90
2022-11-19T01:39:59.660Z,9.35
2022-11-19T01:42:50.464Z,9.23
2022-11-19T01:45:45.654Z,6.37
2022-11-19T01:48:27.910Z,7.53
2022-11-19T01:51:01.235Z,23.27
2022-11-19T01:53:36.722Z,32.93
2022-11-19T01:56:14.347Z,13.80
2022-11-19T01:58:47.983Z,11.48
2022-11-19T02:01:20.794Z,11.53
2022-11-19T02:03:55.683Z,8.33
2022-11-19T02:06:26.625Z,8.75
2022-11-19T02:08:57.616Z,11.53
2022-11-19T02:11:57.566Z,7.85
2022-11-19T02:14:42.858Z,7.58
2022-11-19T02:20:46.124Z,8.93
2022-11-19T02:23:31.611Z,11.85
2022-11-19T02:29:36.642Z,6.22
2022-11-19T02:33:12.822Z,7.97
2022-11-19T02:36:01.183Z,6.62
2022-11-19T02:38:52.657Z,8.28
2022-11-19T02:41:37.870Z,7.47
2022-11-19T02:48:18.320Z,5.25
2022-11-19T02:50:54.527Z,7.17
2022-11-19T02:53:25.555Z,5.60
2022-11-19T02:56:02.686Z,8.45
2022-11-19T02:58:52.992Z,5.50
2022-11-19T03:01:51.390Z,7.78
2022-11-19T03:05:10.060Z,9.18
2022-11-19T03:10:04.765Z,6.75
2022-11-19T03:16:24.528Z,5.97
2022-11-19T03:18:57.070Z,7.75
2022-11-19T03:21:39.252Z,4.58
2022-11-19T03:24:15.276Z,5.12
2022-11-19T03:26:49.530Z,7.15
2022-11-19T03:29:21.896Z,5.30
2022-11-19T03:31:55.297Z,3.50
2022-11-19T03:34:28.019Z,4.33
2022-11-19T03:37:01.481Z,4.53
2022-11-19T03:39:33.080Z,6.25
2022-11-19T03:42:05.092Z,5.87
2022-11-19T03:44:44.566Z,3.40
2022-11-19T03:47:18.122Z,8.08
2022-11-19T03:49:51.556Z,4.58
2022-11-19T03:52:28.713Z,6.42
2022-11-19T03:55:00.325Z,9.75
2022-11-19T03:57:34.538Z,7.75
2022-11-19T04:00:06.378Z,5.95
2022-11-19T04:02:37.520Z,3.25
2022-11-19T04:05:09.612Z,4.40
2022-11-19T04:07:41.033Z,6.87
2022-11-19T04:10:12.401Z,4.12
2022-11-19T04:12:43.121Z,5.10
2022-11-19T04:15:16.677Z,7.83
2022-11-19T04:17:48.063Z,4.50
2022-11-19T04:20:19.221Z,4.42
2022-11-19T04:22:51.308Z,5.25
2022-11-19T04:25:25.246Z,5.47
2022-11-19T04:27:56.554Z,4.22
2022-11-19T04:30:27.548Z,4.83
2022-11-19T04:32:58.797Z,3.85
2022-11-19T04:35:32.811Z,5.05
2022-11-19T04:38:05.387Z,4.55
2022-11-19T04:40:36.216Z,6.92
2022-11-19T04:43:07.187Z,5.00
2022-11-19T04:45:38.202Z,5.70
2022-11-19T04:48:27.810Z,5.20
2022-11-19T04:51:02.011Z,6.17
2022-11-19T04:53:41.566Z,5.83
2022-11-19T04:56:21.697Z,7.00
2022-11-19T04:59:15.847Z,6.37
2022-11-19T05:01:53.227Z,6.28
2022-11-19T05:04:33.884Z,6.20
2022-11-19T05:07:03.380Z,4.90
2022-11-19T05:09:35.922Z,7.73
2022-11-19T05:12:12.290Z,3.45
2022-11-19T05:17:14.206Z,4.70
2022-11-19T05:19:45.480Z,5.08
2022-11-19T05:22:18.196Z,5.37
2022-11-19T05:24:50.686Z,4.45
2022-11-19T05:27:45.396Z,6.55
2022-11-19T05:30:36.210Z,4.80
2022-11-19T05:33:33.699Z,7.42
2022-11-19T05:36:05.059Z,5.97
2022-11-19T05:38:36.276Z,4.30
2022-11-19T05:41:09.930Z,2.98
2022-11-19T05:43:43.699Z,3.20
2022-11-19T05:46:21.741Z,3.83
2022-11-19T05:48:53.056Z,5.12
2022-11-19T05:51:27.019Z,5.17
2022-11-19T05:53:58.496Z,5.22
2022-11-19T05:56:29.718Z,5.03
2022-11-19T05:59:00.757Z,5.15
2022-11-19T06:01:38.117Z,5.62
2022-11-19T06:04:09.340Z,3.95
2022-11-19T06:06:40.825Z,4.45
2022-11-19T06:09:11.848Z,3.90
2022-11-19T06:11:52.123Z,4.72
2022-11-19T06:14:25.566Z,3.72
2022-11-19T06:16:59.606Z,4.03
2022-11-19T06:19:33.802Z,10.60
2022-11-19T06:22:04.229Z,5.78
2022-11-19T06:24:35.543Z,8.65
2022-11-19T06:27:10.141Z,17.55
2022-11-19T06:29:41.047Z,9.08
2022-11-19T06:32:13.304Z,4.72
2022-11-19T06:34:44.239Z,5.78
2022-11-19T06:37:15.253Z,6.00
2022-11-19T06:39:46.254Z,4.75
2022-11-19T06:42:34.447Z,4.62
2022-11-19T06:45:09.216Z,5.40
2022-11-19T06:47:41.015Z,7.65
2022-11-19T06:50:13.336Z,6.70
2022-11-19T06:52:49.264Z,5.62
2022-11-19T06:55:23.978Z,3.30
2022-11-19T06:57:54.891Z,4.78
2022-11-19T07:00:26.341Z,6.83
2022-11-19T07:02:57.149Z,5.25
2022-11-19T07:05:28.682Z,9.65
2022-11-19T07:08:02.953Z,6.97
2022-11-19T07:10:47.568Z,6.70
2022-11-19T07:14:22.627Z,5.00
2022-11-19T07:16:36.518Z,5.10
2022-11-19T07:19:10.336Z,7.60
2022-11-19T07:21:41.694Z,5.37
2022-11-19T07:24:14.684Z,5.30
2022-11-19T07:26:46.317Z,4.12
2022-11-19T07:29:21.632Z,5.80
2022-11-19T07:31:56.913Z,4.50
2022-11-19T07:34:42.736Z,6.20
2022-11-19T07:37:13.866Z,4.78
2022-11-19T07:39:46.609Z,4.72
2022-11-19T07:42:35.177Z,5.92
2022-11-19T07:45:06.693Z,6.17
2022-11-19T07:47:41.675Z,3.77
2022-11-19T07:50:12.488Z,5.40
2022-11-19T07:52:43.765Z,5.67
2022-11-19T07:55:14.933Z,6.25
2022-11-19T07:57:45.837Z,4.75
2022-11-19T08:00:17.457Z,8.00
2022-11-19T08:02:50.420Z,6.78
2022-11-19T08:05:21.623Z,8.25
2022-11-19T08:07:57.537Z,5.62
2022-11-19T08:10:32.232Z,5.00
2022-11-19T08:13:05.888Z,5.83
2022-11-19T08:15:38.673Z,9.40
2022-11-19T08:18:16.239Z,4.65
2022-11-19T08:20:52.676Z,4.28
2022-11-19T08:25:56.170Z,6.95
2022-11-19T08:28:30.329Z,4.60
2022-11-19T08:31:12.600Z,4.62
2022-11-19T08:33:44.080Z,4.22
2022-11-19T08:36:17.546Z,10.45
2022-11-19T08:38:48.554Z,4.30
2022-11-19T08:41:38.187Z,5.72
2022-11-19T08:44:11.485Z,3.95
2022-11-19T08:46:42.398Z,4.08
2022-11-19T08:49:19.714Z,5.70
2022-11-19T08:51:50.804Z,4.65
2022-11-19T08:54:22.151Z,5.37
2022-11-19T08:56:54.913Z,4.17
2022-11-19T08:59:25.909Z,6.67
2022-11-19T09:01:57.317Z,4.83
2022-11-19T09:04:28.586Z,4.75
2022-11-19T09:07:00.024Z,5.42
2022-11-19T09:09:32.122Z,5.65
2022-11-19T09:12:05.013Z,5.45
2022-11-19T09:14:36.195Z,6.37
2022-11-19T09:17:07.792Z,6.50
2022-11-19T09:19:39.335Z,5.35
2022-11-19T09:22:10.592Z,5.28
2022-11-19T09:24:42.613Z,6.00
2022-11-19T09:27:13.933Z,5.28
2022-11-19T09:29:44.927Z,5.83
2022-11-19T09:32:19.953Z,4.55
2022-11-19T09:34:49.542Z,5.75
2022-11-19T09:37:20.673Z,4.58
2022-11-19T09:39:52.004Z,6.85
2022-11-19T09:42:49.510Z,6.72
2022-11-19T09:45:25.682Z,8.35
2022-11-19T09:48:14.463Z,5.40
2022-11-19T09:50:51.930Z,6.75
2022-11-19T09:53:23.364Z,6.50
2022-11-19T09:55:56.387Z,8.58
2022-11-19T09:58:45.099Z,5.75
2022-11-19T10:01:20.929Z,10.13
2022-11-19T10:03:53.702Z,10.95
2022-11-19T10:06:30.171Z,6.75
2022-11-19T10:09:10.388Z,6.53
2022-11-19T10:12:00.019Z,5.87
2022-11-19T10:14:53.237Z,5.78
2022-11-19T10:17:49.394Z,6.17
2022-11-19T10:20:54.457Z,5.80
2022-11-19T10:23:31.503Z,7.08
2022-11-19T10:26:07.474Z,5.28
2022-11-19T10:28:43.733Z,6.47
2022-11-19T10:31:32.267Z,6.22
2022-11-19T10:34:14.718Z,9.38
2022-11-19T10:36:57.985Z,7.35
2022-11-19T10:39:46.359Z,5.65
2022-11-19T10:45:24.478Z,7.92
2022-11-19T10:48:25.261Z,9.45
2022-11-19T10:51:10.191Z,9.28
2022-11-19T10:53:56.763Z,7.60
2022-11-19T10:59:36.551Z,7.65
2022-11-19T11:02:15.595Z,9.03
2022-11-19T11:05:18.574Z,10.55
2022-11-19T11:08:01.614Z,9.88
2022-11-19T11:10:46.694Z,10.18
2022-11-19T11:14:03.362Z,8.78
2022-11-19T11:17:06.987Z,9.58
2022-11-19T11:29:34.135Z,15.90
2022-11-19T11:35:06.867Z,15.05
2022-11-19T11:37:36.064Z,14.35
2022-11-19T11:40:10.507Z,13.58
2022-11-19T11:42:44.962Z,15.45
2022-11-19T11:45:30.920Z,14.10
2022-11-19T11:48:03.819Z,13.05
2022-11-19T11:50:35.230Z,13.58
2022-11-19T11:56:05.040Z,16.45
2022-11-19T11:58:40.477Z,12.65
2022-11-19T12:01:22.548Z,16.00
2022-11-19T12:05:01.533Z,13.28
2022-11-19T12:20:50.631Z,16.20
2022-11-19T12:23:54.566Z,16.07
2022-11-19T12:26:55.177Z,19.05
2022-11-19T12:29:31.575Z,18.00
2022-11-19T12:32:21.598Z,19.37
2022-11-19T12:35:03.650Z,18.73
2022-11-19T12:37:49.536Z,17.35
2022-11-19T12:40:40.298Z,13.48
2022-11-19T12:43:57.247Z,14.50
2022-11-19T12:46:42.039Z,14.53
2022-11-19T12:49:24.324Z,12.95
2022-11-19T12:52:13.646Z,13.08
2022-11-19T12:55:38.758Z,14.35
2022-11-19T12:58:51.000Z,14.23
2022-11-19T13:01:50.588Z,12.47
2022-11-19T13:04:29.592Z,11.40
2022-11-19T13:07:08.821Z,14.18
2022-11-19T13:09:53.079Z,12.93
2022-11-19T13:12:29.568Z,12.10
2022-11-19T13:15:11.916Z,14.07
2022-11-19T13:17:45.809Z,8.93
2022-11-19T13:20:35.645Z,10.65
2022-11-19T13:23:08.725Z,13.43
2022-11-19T13:25:49.173Z,10.43
2022-11-19T13:28:25.219Z,9.90
2022-11-19T13:31:00.136Z,12.90
2022-11-19T13:33:36.358Z,11.68
2022-11-19T13:36:12.493Z,10.30
2022-11-19T13:38:49.035Z,8.33
2022-11-19T13:47:07.794Z,8.65
2022-11-19T13:49:51.319Z,13.60
2022-11-19T13:52:42.671Z,11.05
2022-11-19T13:55:44.460Z,13.75
2022-11-19T13:58:51.614Z,11.25
2022-11-19T14:01:41.225Z,9.78
2022-11-19T14:04:33.730Z,8.85
2022-11-19T14:07:40.240Z,13.93
2022-11-19T14:17:17.268Z,11.00
2022-11-19T14:23:17.809Z,7.10
2022-11-19T14:26:52.083Z,7.72
2022-11-19T14:28:53.204Z,8.23
2022-11-19T14:31:34.376Z,7.00
2022-11-19T14:37:01.479Z,7.17
2022-11-19T14:39:37.723Z,8.53
2022-11-19T14:47:52.451Z,6.55
2022-11-19T14:50:31.509Z,6.65
2022-11-19T14:51:44.206Z,6.87
2022-11-19T14:53:03.948Z,6.00
2022-11-19T14:55:42.691Z,7.25
2022-11-19T14:58:25.315Z,7.08
2022-11-19T15:01:10.159Z,4.90
2022-11-19T15:03:43.627Z,6.37
2022-11-19T15:06:17.132Z,6.37
2022-11-19T15:12:04.775Z,8.13
2022-11-19T15:14:40.638Z,7.58
2022-11-19T15:17:12.775Z,6.12
2022-11-19T15:20:01.108Z,6.92
2022-11-19T15:22:49.276Z,6.30
2022-11-19T15:25:34.512Z,8.90
2022-11-19T15:28:19.598Z,6.50
2022-11-19T15:31:20.190Z,7.37
2022-11-19T15:34:05.413Z,9.98
2022-11-19T15:39:51.725Z,8.90
2022-11-19T15:42:25.394Z,8.73
2022-11-19T15:45:06.906Z,9.05
2022-11-19T15:47:53.821Z,7.87
2022-11-19T15:50:37.692Z,8.08
2022-11-19T15:53:29.633Z,10.23
2022-11-19T15:56:03.056Z,9.18
2022-11-19T16:02:11.488Z,8.33
2022-11-19T16:05:16.415Z,8.77
2022-11-19T16:07:26.042Z,12.13
2022-11-19T16:10:00.805Z,10.90
2022-11-19T16:12:49.538Z,9.58
2022-11-19T16:15:44.903Z,9.68
2022-11-19T16:18:20.243Z,9.40
2022-11-19T16:20:58.913Z,9.33
2022-11-19T16:23:30.725Z,8.98
2022-11-19T16:26:23.939Z,9.45
2022-11-19T16:28:58.349Z,9.90
2022-11-19T16:31:33.594Z,9.20
2022-11-19T16:34:08.232Z,10.70
2022-11-19T16:36:44.555Z,9.43
2022-11-19T16:39:22.139Z,13.13
2022-11-19T16:42:14.295Z,10.23
2022-11-19T16:47:54.960Z,8.43
2022-11-19T16:50:42.325Z,9.05
2022-11-19T16:53:10.986Z,8.98
2022-11-19T16:55:44.155Z,9.05
2022-11-19T16:58:20.435Z,10.45
2022-11-19T17:00:53.841Z,10.40
2022-11-19T17:03:28.955Z,9.05
2022-11-19T17:06:01.188Z,9.28
2022-11-19T17:08:37.966Z,10.70
2022-11-19T17:11:46.513Z,9.45
2022-11-19T17:14:41.090Z,8.48
2022-11-19T17:18:11.551Z,13.25
2022-11-19T17:20:35.569Z,10.95
2022-11-19T17:23:17.651Z,8.38
2022-11-19T17:25:59.826Z,9.70
2022-11-19T17:28:43.687Z,7.95
2022-11-19T17:31:32.268Z,8.50
2022-11-19T17:37:33.933Z,11.35
2022-11-19T17:40:03.831Z,8.80
2022-11-19T17:43:07.016Z,10.82
2022-11-19T17:45:38.061Z,9.80
2022-11-19T17:48:28.014Z,12.28
2022-11-19T17:51:02.485Z,11.60
2022-11-19T17:53:33.364Z,10.80
2022-11-19T17:56:07.009Z,14.03
2022-11-19T17:58:37.946Z,8.58
2022-11-19T18:01:09.200Z,9.90
2022-11-19T18:03:50.480Z,11.35
2022-11-19T18:06:35.821Z,11.70
2022-11-19T18:09:07.025Z,7.62
2022-11-19T18:11:40.710Z,8.88
2022-11-19T18:14:11.816Z,12.95
2022-11-19T18:16:44.347Z,11.00
2022-11-19T18:19:17.943Z,9.70
2022-11-19T18:21:59.230Z,12.15
2022-11-19T18:24:40.178Z,10.85
2022-11-19T18:27:17.706Z,11.88
2022-11-19T18:29:54.610Z,9.65
2022-11-19T18:32:25.520Z,10.93
2022-11-19T18:35:00.657Z,11.05
2022-11-19T18:37:29.512Z,11.57
2022-11-19T18:40:00.657Z,13.68
2022-11-19T18:42:31.661Z,12.78
2022-11-19T18:45:02.482Z,16.40
2022-11-19T18:47:33.525Z,13.72
2022-11-19T18:50:04.231Z,14.60
2022-11-19T18:52:35.491Z,13.15
2022-11-19T18:55:06.864Z,15.40
2022-11-19T18:57:37.773Z,13.80
2022-11-19T19:00:09.630Z,12.05
2022-11-19T19:02:40.502Z,12.68
2022-11-19T19:05:11.943Z,15.30
2022-11-19T19:07:42.920Z,14.43
2022-11-19T19:10:14.955Z,13.05
2022-11-19T19:12:45.937Z,12.90
2022-11-19T19:15:17.026Z,12.78
2022-11-19T19:17:47.780Z,13.65
2022-11-19T19:20:21.155Z,11.15
2022-11-19T19:22:51.882Z,13.20
2022-11-19T19:25:22.821Z,10.93
2022-11-19T19:27:53.968Z,10.68
2022-11-19T19:30:24.964Z,11.20
2022-11-19T19:32:56.246Z,14.03
2022-11-19T19:35:27.357Z,16.62
2022-11-19T19:37:58.158Z,15.88
2022-11-19T19:40:28.979Z,14.87
2022-11-19T19:43:01.792Z,11.63
2022-11-19T19:45:32.593Z,9.95
2022-11-19T19:48:03.846Z,11.85
2022-11-19T19:50:35.039Z,11.97
2022-11-19T19:53:09.417Z,10.48
2022-11-19T19:55:40.279Z,12.58
2022-11-19T19:58:11.146Z,11.80
2022-11-19T20:00:41.948Z,12.63
2022-11-19T20:03:14.139Z,11.30
2022-11-19T20:05:53.543Z,12.90
2022-11-19T20:08:27.737Z,11.43
2022-11-19T20:11:00.090Z,11.78
2022-11-19T20:13:31.933Z,12.73
2022-11-19T20:16:17.282Z,13.13
2022-11-19T20:18:49.123Z,13.72
2022-11-19T20:21:25.306Z,11.40
2022-11-19T20:23:57.149Z,11.97
2022-11-19T20:26:30.767Z,11.53
2022-11-19T20:29:03.843Z,14.13
2022-11-19T20:31:36.056Z,13.05
2022-11-19T20:34:07.839Z,12.70
2022-11-19T20:36:39.031Z,13.75
2022-11-19T20:39:10.047Z,14.47
2022-11-19T20:41:58.380Z,12.73
2022-11-19T20:47:27.294Z,12.98
2022-11-19T20:49:58.175Z,10.72
2022-11-19T20:52:29.082Z,13.75
2022-11-19T20:55:05.170Z,11.97
2022-11-19T20:57:31.801Z,10.65
2022-11-19T21:00:02.708Z,12.23
2022-11-19T21:02:36.344Z,15.98
2022-11-19T21:05:07.818Z,13.13
2022-11-19T21:07:39.371Z,13.93
2022-11-19T21:10:10.697Z,12.20
2022-11-19T21:12:42.715Z,15.40
2022-11-19T21:15:13.718Z,15.00
2022-11-19T21:17:44.413Z,16.93
2022-11-19T21:20:15.485Z,16.05
2022-11-19T21:22:47.530Z,15.53
2022-11-19T21:25:20.459Z,13.08
2022-11-19T21:27:51.332Z,14.47
2022-11-19T21:30:22.682Z,14.43
2022-11-19T21:32:53.570Z,15.72
2022-11-19T21:35:24.256Z,12.45
2022-11-19T21:37:57.869Z,15.93
2022-11-19T21:40:28.688Z,14.78
2022-11-19T21:42:59.481Z,16.20
2022-11-19T21:45:30.350Z,17.12
2022-11-19T21:48:01.043Z,15.03
2022-11-19T21:50:31.884Z,17.05
2022-11-19T21:53:02.869Z,16.02
2022-11-19T21:55:34.544Z,13.72
2022-11-19T21:58:09.077Z,14.47
2022-11-19T22:00:39.836Z,11.05
2022-11-19T22:03:11.088Z,17.10
2022-11-19T22:05:41.862Z,15.30
2022-11-19T22:08:12.769Z,13.70
2022-11-19T22:10:45.752Z,15.48
2022-11-19T22:16:07.739Z,13.93
2022-11-19T22:18:38.715Z,11.78
2022-11-19T22:21:16.183Z,11.40
2022-11-19T22:23:49.282Z,13.38
2022-11-19T22:29:25.104Z,14.28
2022-11-19T22:50:20.785Z,14.58
2022-11-19T23:04:37.698Z,15.60
2022-11-19T23:07:17.374Z,14.43
2022-11-19T23:09:47.805Z,13.65
2022-11-19T23:12:36.945Z,14.85
2022-11-19T23:15:08.082Z,14.38
2022-11-19T23:17:45.764Z,14.75
2022-11-19T23:20:16.959Z,14.05
2022-11-19T23:22:47.805Z,15.70
2022-11-19T23:25:18.714Z,17.05
2022-11-19T23:27:49.525Z,17.30
2022-11-19T23:30:20.554Z,16.02
2022-11-19T23:32:51.328Z,18.07
2022-11-19T23:35:22.149Z,22.73
2022-11-19T23:37:53.065Z,21.00
2022-11-19T23:40:23.846Z,21.95
2022-11-19T23:42:54.558Z,16.75
2022-11-19T23:45:25.623Z,19.35
2022-11-19T23:47:56.559Z,15.65
2022-11-19T23:50:27.376Z,17.45
2022-11-19T23:52:58.059Z,17.15
2022-11-19T23:55:28.970Z,17.75
2022-11-19T23:57:59.669Z,17.65
